createdAt,value
2018-11-23T00:00:33.531Z,-12.28
2018-11-23T00:03:01.094Z,-12.30
2018-11-23T00:05:28.228Z,-12.28
2018-11-23T00:07:56.552Z,-12.32
2018-11-23T00:10:24.809Z,-12.37
2018-11-23T00:12:51.900Z,-12.37
2018-11-23T00:15:38.499Z,-12.35
2018-11-23T00:18:05.603Z,-12.29
2018-11-23T00:20:32.686Z,-12.37
2018-11-23T00:22:59.791Z,-12.32
2018-11-23T00:25:27.277Z,-12.36
2018-11-23T00:27:54.933Z,-12.47
2018-11-23T00:30:41.481Z,-12.63
2018-11-23T00:33:08.582Z,-12.64
2018-11-23T00:35:35.667Z,-12.75
2018-11-23T00:38:02.781Z,-12.75
2018-11-23T00:40:30.986Z,-12.61
2018-11-23T00:42:58.359Z,-12.45
2018-11-23T00:45:25.480Z,-12.43
2018-11-23T00:47:53.297Z,-12.51
2018-11-23T00:50:21.439Z,-12.55
2018-11-23T00:52:49.030Z,-12.54
2018-11-23T00:55:17.301Z,-12.53
2018-11-23T00:57:44.401Z,-12.54
2018-11-23T01:00:40.323Z,-12.48
2018-11-23T01:03:07.436Z,-12.37
2018-11-23T01:05:34.526Z,-12.31
2018-11-23T01:08:01.670Z,-12.36
2018-11-23T01:10:29.613Z,-12.44
2018-11-23T01:12:57.260Z,-12.43
2018-11-23T01:15:24.347Z,-12.48
2018-11-23T01:17:51.426Z,-12.67
2018-11-23T01:20:19.856Z,-12.80
2018-11-23T01:22:47.411Z,-12.75
2018-11-23T01:25:15.600Z,-12.69
2018-11-23T01:27:43.466Z,-12.88
2018-11-23T01:30:39.205Z,-13.08
2018-11-23T01:33:06.281Z,-13.10
2018-11-23T01:35:33.365Z,-13.04
2018-11-23T01:38:00.444Z,-13.05
2018-11-23T01:40:28.908Z,-13.01
2018-11-23T01:42:56.362Z,-12.96
2018-11-23T01:45:23.462Z,-12.87
2018-11-23T01:47:50.538Z,-12.96
2018-11-23T01:50:37.124Z,-12.98
2018-11-23T01:53:04.238Z,-13.07
2018-11-23T01:55:31.335Z,-13.10
2018-11-23T01:57:58.461Z,-13.05
2018-11-23T02:00:26.728Z,-12.99
2018-11-23T02:02:54.413Z,-12.95
2018-11-23T02:05:21.553Z,-12.86
2018-11-23T02:07:48.649Z,-12.86
2018-11-23T02:10:16.578Z,-12.90
2018-11-23T02:12:43.693Z,-13.01
2018-11-23T02:15:12.317Z,-13.18
2018-11-23T02:17:39.414Z,-13.32
2018-11-23T02:20:25.986Z,-13.39
2018-11-23T02:22:53.117Z,-13.43
2018-11-23T02:25:20.211Z,-13.49
2018-11-23T02:27:47.296Z,-13.71
2018-11-23T02:30:16.475Z,-13.75
2018-11-23T02:32:43.906Z,-13.73
2018-11-23T02:35:11.460Z,-13.70
2018-11-23T02:37:38.543Z,-13.76
2018-11-23T02:40:06.484Z,-13.81
2018-11-23T02:42:33.600Z,-13.61
2018-11-23T02:45:00.684Z,-13.45
2018-11-23T02:47:27.764Z,-13.42
2018-11-23T02:49:54.840Z,-13.51
2018-11-23T02:52:21.925Z,-13.67
2018-11-23T02:54:49.003Z,-13.65
2018-11-23T02:57:16.072Z,-13.58
2018-11-23T02:59:43.172Z,-13.57
2018-11-23T03:02:10.244Z,-13.59
2018-11-23T03:04:37.325Z,-13.54
2018-11-23T03:07:04.457Z,-13.53
2018-11-23T03:09:31.599Z,-13.48
2018-11-23T03:11:58.704Z,-13.58
2018-11-23T03:14:25.817Z,-13.71
2018-11-23T03:16:52.909Z,-13.81
2018-11-23T03:19:20.013Z,-13.73
2018-11-23T03:21:47.094Z,-13.73
2018-11-23T03:24:14.466Z,-13.78
2018-11-23T03:26:41.533Z,-13.68
2018-11-23T03:29:08.610Z,-13.61
2018-11-23T03:31:35.706Z,-13.72
2018-11-23T03:34:02.798Z,-13.84
2018-11-23T03:36:29.897Z,-13.86
2018-11-23T03:38:56.982Z,-13.84
2018-11-23T03:41:24.084Z,-13.79
2018-11-23T03:43:51.167Z,-13.71
2018-11-23T03:46:18.281Z,-13.70
2018-11-23T03:48:45.361Z,-13.88
2018-11-23T03:51:12.519Z,-14.02
2018-11-23T03:53:39.589Z,-14.13
2018-11-23T03:56:06.690Z,-14.20
2018-11-23T03:58:33.780Z,-14.31
2018-11-23T04:01:00.879Z,-14.38
2018-11-23T04:03:27.967Z,-14.35
2018-11-23T04:05:55.044Z,-14.15
2018-11-23T04:08:22.142Z,-14.06
2018-11-23T04:10:49.210Z,-14.23
2018-11-23T04:13:16.302Z,-14.23
2018-11-23T04:15:43.374Z,-14.29
2018-11-23T04:18:10.468Z,-14.39
2018-11-23T04:20:37.549Z,-14.41
2018-11-23T04:23:04.708Z,-14.51
2018-11-23T04:25:31.788Z,-14.38
2018-11-23T04:27:58.864Z,-14.35
2018-11-23T04:30:25.946Z,-14.35
2018-11-23T04:32:53.049Z,-14.38
2018-11-23T04:35:20.138Z,-14.45
2018-11-23T04:37:47.637Z,-14.43
2018-11-23T04:40:15.613Z,-14.40
2018-11-23T04:42:42.929Z,-14.43
2018-11-23T04:47:58.060Z,-14.37
2018-11-23T04:50:25.142Z,-14.52
2018-11-23T04:52:52.226Z,-14.70
2018-11-23T04:55:19.355Z,-14.69
2018-11-23T04:57:47.305Z,-14.80
2018-11-23T05:00:14.959Z,-14.77
2018-11-23T05:02:42.539Z,-14.80
2018-11-23T05:05:10.209Z,-14.78
2018-11-23T05:07:37.297Z,-14.70
2018-11-23T05:10:06.284Z,-14.68
2018-11-23T05:12:33.378Z,-14.73
2018-11-23T05:15:00.684Z,-14.72
2018-11-23T05:17:27.762Z,-14.70
2018-11-23T05:19:54.877Z,-14.81
2018-11-23T05:22:21.984Z,-14.82
2018-11-23T05:24:49.125Z,-14.84
2018-11-23T05:27:16.199Z,-14.87
2018-11-23T05:29:43.293Z,-14.88
2018-11-23T05:32:10.387Z,-14.86
2018-11-23T05:34:37.498Z,-14.86
2018-11-23T05:37:04.684Z,-14.80
2018-11-23T05:39:31.788Z,-14.73
2018-11-23T05:41:58.946Z,-14.70
2018-11-23T05:44:26.026Z,-14.61
2018-11-23T05:46:53.152Z,-14.50
2018-11-23T05:49:20.270Z,-14.42
2018-11-23T05:51:47.404Z,-14.30
2018-11-23T05:54:14.487Z,-14.22
2018-11-23T05:56:41.570Z,-14.12
2018-11-23T05:59:08.661Z,-13.99
2018-11-23T06:01:35.775Z,-13.95
2018-11-23T06:04:02.890Z,-13.92
2018-11-23T06:06:29.975Z,-13.86
2018-11-23T06:08:57.062Z,-13.87
2018-11-23T06:11:24.188Z,-13.89
2018-11-23T06:13:51.276Z,-13.89
2018-11-23T06:16:18.351Z,-13.83
2018-11-23T06:18:45.428Z,-13.80
2018-11-23T06:21:12.528Z,-13.73
2018-11-23T06:23:39.678Z,-13.72
2018-11-23T06:26:26.760Z,-13.65
2018-11-23T06:28:53.898Z,-13.69
2018-11-23T06:31:21.004Z,-13.72
2018-11-23T06:33:48.756Z,-13.58
2018-11-23T06:36:16.187Z,-13.57
2018-11-23T06:38:43.387Z,-13.53
2018-11-23T06:41:10.825Z,-13.52
2018-11-23T06:43:38.013Z,-13.46
2018-11-23T06:46:07.099Z,-13.45
2018-11-23T06:48:34.207Z,-13.41
2018-11-23T06:51:01.318Z,-13.42
2018-11-23T06:53:28.444Z,-13.46
2018-11-23T06:55:55.925Z,-13.49
2018-11-23T06:58:23.138Z,-13.50
2018-11-23T07:00:50.276Z,-13.51
2018-11-23T07:03:17.385Z,-13.52
2018-11-23T07:05:44.532Z,-13.48
2018-11-23T07:08:12.023Z,-13.46
2018-11-23T07:10:39.117Z,-13.45
2018-11-23T07:13:06.589Z,-13.43
2018-11-23T07:15:33.735Z,-13.41
2018-11-23T07:18:00.846Z,-13.37
2018-11-23T07:20:27.999Z,-13.32
2018-11-23T07:22:55.257Z,-13.34
2018-11-23T07:25:22.374Z,-13.30
2018-11-23T07:27:49.466Z,-13.27
2018-11-23T07:30:36.789Z,-13.22
2018-11-23T07:33:04.212Z,-13.19
2018-11-23T07:35:31.350Z,-13.16
2018-11-23T07:37:58.438Z,-13.11
2018-11-23T07:41:04.473Z,-13.09
2018-11-23T07:43:31.586Z,-13.09
2018-11-23T07:45:58.697Z,-13.12
2018-11-23T07:48:25.798Z,-13.10
2018-11-23T07:50:52.923Z,-13.03
2018-11-23T07:53:20.009Z,-12.95
2018-11-23T07:55:47.143Z,-12.90
2018-11-23T07:58:14.251Z,-12.86
2018-11-23T08:00:41.333Z,-12.82
2018-11-23T08:03:08.430Z,-12.80
2018-11-23T08:05:35.553Z,-12.82
2018-11-23T08:08:02.651Z,-12.81
2018-11-23T08:10:29.238Z,-12.81
2018-11-23T08:12:56.313Z,-12.80
2018-11-23T08:15:24.669Z,-12.76
2018-11-23T08:17:51.787Z,-12.75
2018-11-23T08:20:20.388Z,-12.75
2018-11-23T08:22:47.641Z,-12.73
2018-11-23T08:25:15.913Z,-12.71
2018-11-23T08:27:43.793Z,-12.67
2018-11-23T08:30:33.918Z,-12.57
2018-11-23T08:33:01.007Z,-12.48
2018-11-23T08:35:28.106Z,-12.34
2018-11-23T08:37:55.197Z,-12.27
2018-11-23T08:40:26.198Z,-12.21
2018-11-23T08:42:53.921Z,-12.17
2018-11-23T08:45:25.095Z,-12.08
2018-11-23T08:47:52.172Z,-12.04
2018-11-23T08:50:40.610Z,-11.97
2018-11-23T08:53:08.025Z,-11.90
2018-11-23T08:55:35.139Z,-11.83
2018-11-23T08:58:02.257Z,-11.79
2018-11-23T09:00:29.344Z,-11.73
2018-11-23T09:02:57.984Z,-11.70
2018-11-23T09:05:25.080Z,-11.61
2018-11-23T09:07:53.544Z,-11.57
2018-11-23T09:10:22.299Z,-11.54
2018-11-23T09:12:51.114Z,-11.45
2018-11-23T09:15:18.356Z,-11.38
2018-11-23T09:17:45.850Z,-11.28
2018-11-23T09:20:20.102Z,-11.17
2018-11-23T09:22:47.331Z,-11.07
2018-11-23T09:25:16.040Z,-11.02
2018-11-23T09:27:43.284Z,-10.95
2018-11-23T09:30:29.950Z,-10.88
2018-11-23T09:32:57.673Z,-10.81
2018-11-23T09:35:25.401Z,-10.75
2018-11-23T09:37:52.772Z,-10.64
2018-11-23T09:40:39.419Z,-10.11
2018-11-23T09:43:06.663Z,-9.93
2018-11-23T09:45:34.279Z,-9.62
2018-11-23T09:48:02.761Z,-9.46
2018-11-23T09:50:30.024Z,-9.27
2018-11-23T09:53:01.321Z,-8.85
2018-11-23T09:55:29.458Z,-8.21
2018-11-23T09:57:56.713Z,-7.39
2018-11-23T10:00:43.371Z,-7.02
2018-11-23T10:03:10.627Z,-6.72
2018-11-23T10:05:37.883Z,-6.79
2018-11-23T10:08:06.209Z,-6.66
2018-11-23T10:10:33.494Z,-6.61
2018-11-23T10:13:00.734Z,-6.63
2018-11-23T10:15:29.192Z,-6.54
2018-11-23T10:17:56.427Z,-6.52
2018-11-23T10:20:25.038Z,-6.51
2018-11-23T10:22:52.320Z,-6.41
2018-11-23T10:25:21.012Z,-6.35
2018-11-23T10:27:48.380Z,-6.31
2018-11-23T10:30:35.751Z,-6.29
2018-11-23T10:33:04.462Z,-6.17
2018-11-23T10:35:31.785Z,-6.12
2018-11-23T10:38:00.416Z,-6.04
2018-11-23T10:40:29.422Z,-5.99
2018-11-23T10:42:56.666Z,-5.87
2018-11-23T10:45:28.239Z,-5.82
2018-11-23T10:47:56.278Z,-5.78
2018-11-23T10:50:25.110Z,-5.80
2018-11-23T10:52:52.354Z,-5.73
2018-11-23T10:55:21.036Z,-5.68
2018-11-23T10:57:48.453Z,-5.65
2018-11-23T11:00:36.069Z,-5.59
2018-11-23T11:03:22.739Z,-5.58
2018-11-23T11:06:09.445Z,-5.53
2018-11-23T11:08:37.069Z,-5.54
2018-11-23T11:11:04.602Z,-5.41
2018-11-23T11:13:31.934Z,-5.33
2018-11-23T11:15:59.174Z,-5.21
2018-11-23T11:18:26.414Z,-5.17
2018-11-23T11:20:53.718Z,-5.12
2018-11-23T11:23:20.953Z,-5.02
2018-11-23T11:25:48.191Z,-5.01
2018-11-23T11:28:34.935Z,-4.97
2018-11-23T11:31:02.182Z,-4.91
2018-11-23T11:33:29.406Z,-4.86
2018-11-23T11:35:56.640Z,-4.81
2018-11-23T11:38:23.957Z,-4.84
2018-11-23T11:40:51.157Z,-4.84
2018-11-23T11:43:18.399Z,-4.83
2018-11-23T11:45:45.611Z,-4.83
2018-11-23T11:48:12.864Z,-4.85
2018-11-23T11:50:40.118Z,-4.85
2018-11-23T11:53:07.372Z,-4.88
2018-11-23T11:55:34.623Z,-4.88
2018-11-23T11:58:01.888Z,-4.88
2018-11-23T12:00:29.108Z,-4.91
2018-11-23T12:02:56.385Z,-4.97
2018-11-23T12:05:23.665Z,-4.95
2018-11-23T12:07:50.918Z,-4.98
2018-11-23T12:10:19.586Z,-4.99
2018-11-23T12:12:46.834Z,-4.93
2018-11-23T12:15:14.732Z,-4.91
2018-11-23T12:17:42.212Z,-4.88
2018-11-23T12:20:12.261Z,-4.88
2018-11-23T12:22:39.764Z,-4.85
2018-11-23T12:25:07.018Z,-4.84
2018-11-23T12:27:34.235Z,-4.85
2018-11-23T12:30:01.551Z,-4.89
2018-11-23T12:32:28.816Z,-4.82
2018-11-23T12:34:56.048Z,-4.80
2018-11-23T12:37:23.291Z,-4.89
2018-11-23T12:39:50.572Z,-5.03
2018-11-23T12:42:37.256Z,-5.11
2018-11-23T12:45:06.320Z,-5.14
2018-11-23T12:47:33.538Z,-5.25
2018-11-23T12:50:00.770Z,-5.13
2018-11-23T12:52:28.078Z,-5.19
2018-11-23T12:54:55.313Z,-5.27
2018-11-23T12:57:22.582Z,-5.37
2018-11-23T12:59:49.799Z,-5.43
2018-11-23T13:02:17.403Z,-5.48
2018-11-23T13:04:44.620Z,-5.54
2018-11-23T13:07:11.860Z,-5.56
2018-11-23T13:09:39.081Z,-5.56
2018-11-23T13:12:06.322Z,-5.58
2018-11-23T13:14:33.542Z,-5.62
2018-11-23T13:17:00.801Z,-5.62
2018-11-23T13:19:28.098Z,-5.61
2018-11-23T13:21:55.368Z,-5.65
2018-11-23T13:24:22.627Z,-5.71
2018-11-23T13:26:49.862Z,-5.75
2018-11-23T13:29:17.090Z,-5.81
2018-11-23T13:31:44.334Z,-5.85
2018-11-23T13:34:11.547Z,-5.87
2018-11-23T13:36:38.806Z,-5.91
2018-11-23T13:39:06.718Z,-5.96
2018-11-23T13:41:34.009Z,-6.04
2018-11-23T13:44:01.297Z,-6.11
2018-11-23T13:46:28.539Z,-6.13
2018-11-23T13:48:55.772Z,-6.19
2018-11-23T13:51:22.984Z,-6.26
2018-11-23T13:53:50.206Z,-6.33
2018-11-23T13:56:17.561Z,-6.39
2018-11-23T13:58:44.768Z,-6.39
2018-11-23T14:01:11.976Z,-6.40
2018-11-23T14:03:39.200Z,-6.41
2018-11-23T14:06:06.452Z,-6.44
2018-11-23T14:08:33.695Z,-6.43
2018-11-23T14:11:00.914Z,-6.41
2018-11-23T14:13:28.145Z,-6.45
2018-11-23T14:15:55.352Z,-6.48
2018-11-23T14:18:22.560Z,-6.51
2018-11-23T14:20:49.783Z,-6.54
2018-11-23T14:23:17.019Z,-6.55
2018-11-23T14:25:44.285Z,-6.59
2018-11-23T14:28:11.536Z,-6.59
2018-11-23T14:30:38.760Z,-6.64
2018-11-23T14:33:06.031Z,-6.69
2018-11-23T14:35:34.179Z,-6.73
2018-11-23T14:38:01.822Z,-6.75
2018-11-23T14:40:29.063Z,-6.79
2018-11-23T14:42:56.762Z,-6.86
2018-11-23T14:45:44.030Z,-6.92
2018-11-23T14:48:11.266Z,-6.93
2018-11-23T14:50:57.930Z,-6.95
2018-11-23T14:53:25.164Z,-6.99
2018-11-23T14:55:52.415Z,-7.00
2018-11-23T14:58:19.722Z,-7.03
2018-11-23T15:00:46.952Z,-7.08
2018-11-23T15:03:14.195Z,-7.11
2018-11-23T15:05:41.447Z,-7.12
2018-11-23T15:08:08.655Z,-7.16
2018-11-23T15:10:36.286Z,-7.22
2018-11-23T15:13:04.484Z,-7.18
2018-11-23T15:15:36.629Z,-7.18
2018-11-23T15:18:04.030Z,-7.20
2018-11-23T15:20:50.720Z,-7.23
2018-11-23T15:23:19.331Z,-7.25
2018-11-23T15:25:46.573Z,-7.24
2018-11-23T15:28:14.328Z,-7.23
2018-11-23T15:30:42.498Z,-7.24
2018-11-23T15:33:11.222Z,-7.27
2018-11-23T15:35:39.022Z,-7.32
2018-11-23T15:38:10.210Z,-7.35
2018-11-23T15:40:35.192Z,-7.31
2018-11-23T15:43:03.872Z,-7.22
2018-11-23T15:45:31.984Z,-6.66
2018-11-23T15:47:59.751Z,-6.29
2018-11-23T15:50:28.836Z,-6.35
2018-11-23T15:52:56.087Z,-6.24
2018-11-23T15:55:25.409Z,-6.04
2018-11-23T15:57:53.899Z,-5.90
2018-11-23T16:00:26.810Z,-5.78
2018-11-23T16:02:54.221Z,-5.40
2018-11-23T16:05:21.661Z,-5.27
2018-11-23T16:07:49.373Z,-5.20
2018-11-23T16:10:22.045Z,-5.00
2018-11-23T16:12:50.538Z,-4.71
2018-11-23T16:15:18.618Z,-4.74
2018-11-23T16:17:46.108Z,-4.87
2018-11-23T16:20:32.931Z,-4.95
2018-11-23T16:23:19.627Z,-4.86
2018-11-23T16:25:47.445Z,-4.85
2018-11-23T16:28:14.708Z,-4.82
2018-11-23T16:30:43.487Z,-4.55
2018-11-23T16:33:12.268Z,-4.42
2018-11-23T16:35:40.152Z,-4.26
2018-11-23T16:38:09.548Z,-3.96
2018-11-23T16:40:38.766Z,-3.86
2018-11-23T16:43:07.446Z,-3.54
2018-11-23T16:45:35.417Z,-3.38
2018-11-23T16:48:04.015Z,-3.30
2018-11-23T16:50:31.425Z,-3.37
2018-11-23T16:52:58.929Z,-3.40
2018-11-23T16:55:26.514Z,-3.32
2018-11-23T16:58:13.230Z,-3.29
2018-11-23T17:00:41.661Z,-3.28
2018-11-23T17:03:12.939Z,-3.27
2018-11-23T17:05:41.614Z,-3.24
2018-11-23T17:08:09.100Z,-3.30
2018-11-23T17:10:36.295Z,-3.34
2018-11-23T17:13:03.496Z,-3.30
2018-11-23T17:15:30.724Z,-3.28
2018-11-23T17:17:57.847Z,-3.28
2018-11-23T17:20:26.371Z,-3.08
2018-11-23T17:22:54.719Z,-3.05
2018-11-23T17:25:22.718Z,-3.08
2018-11-23T17:27:50.436Z,-3.17
2018-11-23T17:30:37.023Z,-3.24
2018-11-23T17:33:04.382Z,-3.29
2018-11-23T17:35:31.531Z,-3.30
2018-11-23T17:37:58.636Z,-3.27
2018-11-23T17:40:27.164Z,-3.08
2018-11-23T17:42:54.606Z,-3.18
2018-11-23T17:45:23.362Z,-3.30
2018-11-23T17:47:51.104Z,-3.42
2018-11-23T17:50:19.671Z,-3.52
2018-11-23T17:52:47.329Z,-3.55
2018-11-23T17:55:14.619Z,-3.60
2018-11-23T17:57:42.342Z,-3.63
2018-11-23T18:00:30.179Z,-3.68
2018-11-23T18:02:58.250Z,-3.71
2018-11-23T18:05:26.106Z,-3.80
2018-11-23T18:07:53.283Z,-3.87
2018-11-23T18:10:39.868Z,-3.93
2018-11-23T18:13:07.015Z,-3.98
2018-11-23T18:15:34.807Z,-3.99
2018-11-23T18:18:02.882Z,-4.05
2018-11-23T18:20:30.722Z,-4.11
2018-11-23T18:22:58.721Z,-4.13
2018-11-23T18:25:27.333Z,-4.14
2018-11-23T18:28:14.075Z,-4.17
2018-11-23T18:30:41.255Z,-4.17
2018-11-23T18:33:08.477Z,-4.17
2018-11-23T18:35:35.865Z,-4.03
2018-11-23T18:38:03.003Z,-3.99
2018-11-23T18:40:36.948Z,-3.95
2018-11-23T18:42:57.280Z,-4.03
2018-11-23T18:45:24.422Z,-4.07
2018-11-23T18:47:51.541Z,-4.03
2018-11-23T18:50:18.660Z,-4.03
2018-11-23T18:52:45.846Z,-3.95
2018-11-23T18:55:17.847Z,-3.89
2018-11-23T18:57:40.716Z,-3.87
2018-11-23T19:00:27.356Z,-3.96
2018-11-23T19:02:54.536Z,-4.04
2018-11-23T19:05:41.830Z,-4.13
2018-11-23T19:08:08.993Z,-4.17
2018-11-23T19:10:36.142Z,-4.15
2018-11-23T19:13:03.289Z,-4.06
2018-11-23T19:15:30.405Z,-3.99
2018-11-23T19:17:57.594Z,-4.03
2018-11-23T19:20:25.027Z,-4.03
2018-11-23T19:22:53.303Z,-3.99
2018-11-23T19:25:20.411Z,-4.06
2018-11-23T19:27:47.543Z,-4.10
2018-11-23T19:30:37.653Z,-4.17
2018-11-23T19:33:04.897Z,-4.21
2018-11-23T19:35:32.033Z,-4.25
2018-11-23T19:37:59.144Z,-4.29
2018-11-23T19:40:26.277Z,-4.31
2018-11-23T19:42:53.462Z,-4.27
2018-11-23T19:45:20.730Z,-4.21
2018-11-23T19:47:47.889Z,-4.27
2018-11-23T19:50:15.881Z,-4.28
2018-11-23T19:52:43.043Z,-4.33
2018-11-23T19:55:11.111Z,-4.35
2018-11-23T19:57:38.282Z,-4.42
2018-11-23T20:00:27.995Z,-4.53
2018-11-23T20:02:55.106Z,-4.59
2018-11-23T20:05:22.472Z,-4.61
2018-11-23T20:07:50.996Z,-4.68
2018-11-23T20:12:54.097Z,-4.58
2018-11-23T20:15:21.209Z,-4.50
2018-11-23T20:17:48.364Z,-4.52
2018-11-23T20:20:15.989Z,-4.55
2018-11-23T20:22:43.429Z,-4.57
2018-11-23T20:25:14.261Z,-4.64
2018-11-23T20:27:41.524Z,-4.70
2018-11-23T20:33:07.036Z,-4.87
2018-11-23T20:35:34.223Z,-4.97
2018-11-23T20:38:01.379Z,-5.05
2018-11-23T20:40:28.492Z,-5.10
2018-11-23T20:42:55.623Z,-5.15
2018-11-23T20:45:22.756Z,-5.20
2018-11-23T20:47:49.898Z,-5.29
2018-11-23T20:50:17.484Z,-5.34
2018-11-23T20:52:44.625Z,-5.35
2018-11-23T20:55:21.368Z,-5.40
2018-11-23T20:57:48.522Z,-5.45
2018-11-23T21:00:16.615Z,-5.52
2018-11-23T21:02:44.361Z,-5.59
2018-11-23T21:05:12.630Z,-5.63
2018-11-23T21:07:39.883Z,-5.70
2018-11-23T21:10:26.445Z,-5.79
2018-11-23T21:12:54.093Z,-5.82
2018-11-23T21:15:30.168Z,-5.87
2018-11-23T21:17:58.986Z,-5.94
2018-11-23T21:20:26.773Z,-5.96
2018-11-23T21:22:53.896Z,-6.04
2018-11-23T21:25:21.032Z,-6.09
2018-11-23T21:27:48.176Z,-6.15
2018-11-23T21:30:16.395Z,-6.20
2018-11-23T21:32:43.515Z,-6.27
2018-11-23T21:35:11.041Z,-6.31
2018-11-23T21:37:38.152Z,-6.35
2018-11-23T21:40:28.230Z,-6.36
2018-11-23T21:42:55.358Z,-6.40
2018-11-23T21:45:22.535Z,-6.43
2018-11-23T21:47:49.674Z,-6.44
2018-11-23T21:50:36.310Z,-6.47
2018-11-23T21:53:03.449Z,-6.50
2018-11-23T21:55:30.610Z,-6.54
2018-11-23T21:57:57.736Z,-6.59
2018-11-23T22:00:24.897Z,-6.62
2018-11-23T22:02:52.044Z,-6.59
2018-11-23T22:05:19.164Z,-6.62
2018-11-23T22:07:46.307Z,-6.66
2018-11-23T22:10:17.281Z,-6.70
2018-11-23T22:12:44.434Z,-6.73
2018-11-23T22:15:34.578Z,-6.75
2018-11-23T22:18:01.710Z,-6.77
2018-11-23T22:20:28.846Z,-6.78
2018-11-23T22:22:55.974Z,-6.79
2018-11-23T22:25:23.377Z,-6.82
2018-11-23T22:27:50.483Z,-6.81
2018-11-23T22:30:37.057Z,-6.76
2018-11-23T22:33:04.202Z,-7.39
2018-11-23T22:35:31.349Z,-6.54
2018-11-23T22:37:58.454Z,-6.47
2018-11-23T22:40:25.560Z,-6.44
2018-11-23T22:43:12.886Z,-6.49
2018-11-23T22:45:40.032Z,-6.50
2018-11-23T22:48:07.318Z,-6.55
2018-11-23T22:50:34.447Z,-6.58
2018-11-23T22:53:01.604Z,-6.62
2018-11-23T22:55:28.745Z,-6.69
2018-11-23T22:57:55.859Z,-6.77
2018-11-23T23:00:45.889Z,-6.76
2018-11-23T23:03:13.309Z,-6.73
2018-11-23T23:05:42.640Z,-6.72
2018-11-23T23:08:07.727Z,-6.78
2018-11-23T23:10:34.863Z,-6.87
2018-11-23T23:13:02.019Z,-6.95
2018-11-23T23:15:29.127Z,-6.98
2018-11-23T23:17:56.252Z,-7.02
2018-11-23T23:20:23.452Z,-7.06
2018-11-23T23:22:50.584Z,-7.15
2018-11-23T23:25:17.751Z,-7.22
2018-11-23T23:27:44.867Z,-7.27
2018-11-23T23:30:31.479Z,-7.34
2018-11-23T23:32:58.606Z,-7.35
2018-11-23T23:35:25.758Z,-7.38
2018-11-23T23:37:52.898Z,-7.42
2018-11-23T23:40:20.034Z,-7.49
2018-11-23T23:42:47.458Z,-7.54
2018-11-23T23:45:34.574Z,-7.55
2018-11-23T23:48:01.689Z,-7.61
2018-11-23T23:50:29.212Z,-7.66
2018-11-23T23:52:56.321Z,-7.66
2018-11-23T23:55:23.437Z,-7.66
2018-11-23T23:57:50.559Z,-7.70
